createdAt,value
2023-04-16T00:00:36.630Z,4.43
2023-04-16T00:03:26.188Z,4.40
2023-04-16T00:05:58.549Z,4.39
2023-04-16T00:08:27.831Z,4.37
2023-04-16T00:10:57.170Z,4.33
2023-04-16T00:13:27.988Z,4.31
2023-04-16T00:15:57.621Z,4.26
2023-04-16T00:18:28.035Z,4.22
2023-04-16T00:20:57.137Z,4.18
2023-04-16T00:23:27.334Z,4.17
2023-04-16T00:26:00.396Z,4.15
2023-04-16T00:28:30.552Z,4.10
2023-04-16T00:30:59.857Z,4.06
2023-04-16T00:33:30.581Z,3.99
2023-04-16T00:35:59.886Z,3.89
2023-04-16T00:38:30.858Z,3.82
2023-04-16T00:41:00.284Z,3.77
2023-04-16T00:43:31.202Z,3.72
2023-04-16T00:46:00.646Z,3.68
2023-04-16T00:48:32.234Z,3.66
2023-04-16T00:51:02.137Z,3.63
2023-04-16T00:53:32.132Z,3.62
2023-04-16T00:56:06.212Z,3.62
2023-04-16T00:58:36.102Z,3.62
2023-04-16T01:01:06.456Z,3.60
2023-04-16T01:03:40.535Z,3.59
2023-04-16T01:06:10.564Z,3.58
2023-04-16T01:08:41.927Z,3.60
2023-04-16T01:11:12.584Z,3.59
2023-04-16T01:13:42.762Z,3.56
2023-04-16T01:16:13.576Z,3.53
2023-04-16T01:18:43.585Z,3.48
2023-04-16T01:21:13.695Z,3.44
2023-04-16T01:23:43.816Z,3.42
2023-04-16T01:26:13.926Z,3.43
2023-04-16T01:28:44.575Z,3.44
2023-04-16T01:31:15.206Z,3.46
2023-04-16T01:33:54.269Z,3.50
2023-04-16T01:36:24.162Z,3.54
2023-04-16T01:38:53.997Z,3.56
2023-04-16T01:41:23.908Z,3.56
2023-04-16T01:43:56.257Z,3.56
2023-04-16T01:46:30.099Z,3.55
2023-04-16T01:49:03.282Z,3.55
2023-04-16T01:51:33.346Z,3.55
2023-04-16T01:54:02.755Z,3.56
2023-04-16T01:56:34.332Z,3.59
2023-04-16T01:59:04.519Z,3.60
2023-04-16T02:01:39.869Z,3.59
2023-04-16T02:04:10.476Z,3.57
2023-04-16T02:06:41.470Z,3.57
2023-04-16T02:09:11.517Z,3.56
2023-04-16T02:11:44.432Z,3.56
2023-04-16T02:14:14.829Z,3.55
2023-04-16T02:16:46.102Z,3.54
2023-04-16T02:19:54.842Z,3.50
2023-04-16T02:22:26.051Z,3.46
2023-04-16T02:24:55.952Z,3.40
2023-04-16T02:27:25.136Z,3.32
2023-04-16T02:29:57.150Z,3.26
2023-04-16T02:32:27.383Z,3.23
2023-04-16T02:34:57.871Z,3.23
2023-04-16T02:37:27.767Z,3.23
2023-04-16T02:39:58.625Z,3.23
2023-04-16T02:42:28.950Z,3.22
2023-04-16T02:44:59.054Z,3.19
2023-04-16T02:47:28.866Z,3.18
2023-04-16T02:49:58.869Z,3.18
2023-04-16T02:52:28.611Z,3.19
2023-04-16T02:54:58.369Z,3.17
2023-04-16T02:57:28.257Z,3.19
2023-04-16T02:59:58.051Z,3.19
2023-04-16T03:02:28.127Z,3.18
2023-04-16T03:04:58.164Z,3.18
2023-04-16T03:07:27.961Z,3.13
2023-04-16T03:09:57.790Z,3.09
2023-04-16T03:12:27.858Z,3.04
2023-04-16T03:14:58.288Z,2.99
2023-04-16T03:17:28.571Z,2.97
2023-04-16T03:19:58.377Z,2.96
2023-04-16T03:22:28.586Z,2.94
2023-04-16T03:24:58.312Z,2.89
2023-04-16T03:27:27.937Z,2.83
2023-04-16T03:29:58.737Z,2.79
2023-04-16T03:32:28.322Z,2.75
2023-04-16T03:34:59.003Z,2.71
2023-04-16T03:37:29.195Z,2.65
2023-04-16T03:39:58.426Z,2.61
2023-04-16T03:42:28.082Z,2.57
2023-04-16T03:45:00.369Z,2.55
2023-04-16T03:47:31.168Z,2.51
2023-04-16T03:50:03.164Z,2.48
2023-04-16T03:52:32.834Z,2.46
2023-04-16T03:55:04.707Z,2.46
2023-04-16T03:57:35.203Z,2.43
2023-04-16T04:00:10.234Z,2.35
2023-04-16T04:02:54.549Z,2.24
2023-04-16T04:05:25.250Z,2.18
2023-04-16T04:07:54.680Z,2.13
2023-04-16T04:10:24.093Z,2.10
2023-04-16T04:12:53.840Z,2.10
2023-04-16T04:15:23.210Z,2.15
2023-04-16T04:17:53.111Z,2.17
2023-04-16T04:20:22.728Z,2.14
2023-04-16T04:22:52.616Z,2.15
2023-04-16T04:25:23.998Z,2.17
2023-04-16T04:27:54.405Z,2.18
2023-04-16T04:30:23.862Z,2.21
2023-04-16T04:32:53.340Z,2.24
2023-04-16T04:35:23.910Z,2.29
2023-04-16T04:37:53.232Z,2.33
2023-04-16T04:40:22.947Z,2.36
2023-04-16T04:42:52.673Z,2.39
2023-04-16T04:45:28.510Z,2.43
2023-04-16T04:48:00.255Z,2.46
2023-04-16T04:50:29.724Z,2.54
2023-04-16T04:52:59.858Z,2.58
2023-04-16T04:55:29.473Z,2.63
2023-04-16T04:58:02.667Z,2.71
2023-04-16T05:00:32.968Z,2.78
2023-04-16T05:03:06.824Z,2.85
2023-04-16T05:05:36.508Z,2.94
2023-04-16T05:08:06.308Z,3.04
2023-04-16T05:10:36.321Z,3.14
2023-04-16T05:13:06.011Z,3.21
2023-04-16T05:15:35.395Z,3.26
2023-04-16T05:18:05.237Z,3.34
2023-04-16T05:20:34.980Z,3.43
2023-04-16T05:23:04.814Z,3.54
2023-04-16T05:25:33.374Z,3.65
2023-04-16T05:28:03.086Z,3.77
2023-04-16T05:30:32.769Z,3.90
2023-04-16T05:33:02.304Z,4.01
2023-04-16T05:35:31.511Z,4.12
2023-04-16T05:38:00.972Z,4.24
2023-04-16T05:40:30.541Z,4.36
2023-04-16T05:42:59.888Z,4.47
2023-04-16T05:45:29.190Z,4.57
2023-04-16T05:47:57.909Z,4.69
2023-04-16T05:50:27.610Z,4.82
2023-04-16T05:52:56.917Z,4.96
2023-04-16T05:55:28.531Z,5.14
2023-04-16T05:57:57.907Z,5.30
2023-04-16T06:00:29.098Z,5.46
2023-04-16T06:02:58.551Z,5.64
2023-04-16T06:05:27.897Z,5.79
2023-04-16T06:07:57.268Z,5.97
2023-04-16T06:10:28.813Z,6.17
2023-04-16T06:12:58.238Z,6.38
2023-04-16T06:15:27.528Z,6.56
2023-04-16T06:17:58.031Z,6.76
2023-04-16T06:20:28.812Z,6.95
2023-04-16T06:22:58.567Z,7.13
2023-04-16T06:25:27.942Z,7.34
2023-04-16T06:27:57.641Z,7.54
2023-04-16T06:30:27.019Z,7.74
2023-04-16T06:32:56.478Z,7.92
2023-04-16T06:35:25.902Z,8.13
2023-04-16T06:37:55.160Z,8.35
2023-04-16T06:40:24.468Z,8.56
2023-04-16T06:42:54.328Z,8.78
2023-04-16T06:45:23.652Z,9.03
2023-04-16T06:47:53.060Z,9.27
2023-04-16T06:50:25.132Z,9.52
2023-04-16T06:52:54.142Z,9.75
2023-04-16T06:55:23.396Z,9.95
2023-04-16T06:57:54.894Z,10.10
2023-04-16T07:00:24.293Z,10.27
2023-04-16T07:02:55.201Z,10.49
2023-04-16T07:05:27.650Z,10.66
2023-04-16T07:07:58.129Z,10.81
2023-04-16T07:10:27.791Z,10.98
2023-04-16T07:12:57.548Z,11.12
2023-04-16T07:15:27.150Z,11.31
2023-04-16T07:17:57.101Z,11.49
2023-04-16T07:20:26.822Z,11.65
2023-04-16T07:22:57.095Z,11.81
2023-04-16T07:25:27.370Z,11.97
2023-04-16T07:27:56.999Z,12.12
2023-04-16T07:30:34.874Z,12.30
2023-04-16T07:33:04.813Z,12.50
2023-04-16T07:35:34.270Z,12.67
2023-04-16T07:38:03.725Z,12.83
2023-04-16T07:40:33.398Z,12.95
2023-04-16T07:43:03.079Z,13.09
2023-04-16T07:45:35.033Z,13.22
2023-04-16T07:48:04.509Z,13.36
2023-04-16T07:50:33.105Z,13.53
2023-04-16T14:07:06.896Z,18.39
2023-04-16T14:09:37.579Z,18.29
2023-04-16T14:12:08.254Z,17.93
2023-04-16T14:14:38.569Z,17.42
2023-04-16T14:17:09.035Z,16.97
2023-04-16T14:19:39.443Z,16.52
2023-04-16T14:22:09.859Z,16.06
2023-04-16T14:24:40.070Z,15.74
2023-04-16T14:27:10.848Z,15.42
2023-04-16T14:29:41.893Z,15.11
2023-04-16T14:32:12.029Z,14.89
2023-04-16T14:34:41.673Z,14.77
2023-04-16T14:37:11.784Z,14.70
2023-04-16T14:39:41.961Z,14.61
2023-04-16T14:42:11.886Z,14.54
2023-04-16T14:44:41.669Z,14.51
2023-04-16T14:47:11.765Z,14.51
2023-04-16T14:49:41.751Z,14.53
2023-04-16T14:52:12.019Z,14.47
2023-04-16T14:54:41.670Z,14.39
2023-04-16T14:57:10.711Z,14.28
2023-04-16T14:59:40.611Z,14.09
2023-04-16T15:02:11.275Z,13.97
2023-04-16T15:04:41.145Z,13.89
2023-04-16T15:07:11.699Z,13.83
2023-04-16T15:09:41.579Z,13.80
2023-04-16T15:12:11.439Z,13.81
2023-04-16T15:14:41.167Z,13.81
2023-04-16T15:17:11.621Z,13.80
2023-04-16T15:19:41.319Z,13.83
2023-04-16T15:22:11.370Z,13.85
2023-04-16T15:24:41.588Z,13.87
2023-04-16T15:27:12.233Z,13.87
2023-04-16T15:29:42.201Z,13.89
2023-04-16T15:32:12.786Z,13.91
2023-04-16T15:34:42.478Z,13.98
2023-04-16T15:37:12.041Z,14.08
2023-04-16T15:39:42.095Z,14.17
2023-04-16T15:42:11.968Z,14.25
2023-04-16T15:44:41.584Z,14.34
2023-04-16T15:47:11.237Z,14.41
2023-04-16T15:49:41.046Z,14.48
2023-04-16T15:52:12.493Z,14.54
2023-04-16T15:54:42.764Z,14.60
2023-04-16T15:57:12.389Z,14.63
2023-04-16T15:59:41.317Z,14.61
2023-04-16T16:02:10.829Z,14.58
2023-04-16T16:04:47.227Z,14.55
2023-04-16T16:07:20.366Z,14.50
2023-04-16T16:09:53.501Z,14.49
2023-04-16T16:12:23.878Z,14.47
2023-04-16T16:14:53.698Z,14.48
2023-04-16T16:17:23.374Z,14.46
2023-04-16T16:19:53.682Z,14.45
2023-04-16T16:22:24.293Z,14.41
2023-04-16T16:24:56.802Z,14.37
2023-04-16T16:27:27.350Z,14.30
2023-04-16T16:29:56.204Z,14.21
2023-04-16T16:32:25.788Z,14.07
2023-04-16T16:34:55.434Z,13.90
2023-04-16T16:37:25.070Z,13.73
2023-04-16T16:39:54.643Z,13.60
2023-04-16T16:42:24.393Z,13.49
2023-04-16T16:44:56.020Z,13.43
2023-04-16T16:47:27.422Z,13.37
2023-04-16T16:49:57.757Z,13.35
2023-04-16T16:52:28.036Z,13.37
2023-04-16T16:54:58.740Z,13.38
2023-04-16T16:57:28.747Z,13.32
2023-04-16T16:59:59.301Z,13.27
2023-04-16T17:02:29.929Z,13.29
2023-04-16T17:05:01.772Z,13.32
2023-04-16T17:07:32.885Z,13.33
2023-04-16T17:10:06.080Z,13.33
2023-04-16T17:12:37.295Z,13.32
2023-04-16T17:15:08.554Z,13.34
2023-04-16T17:17:39.185Z,13.34
2023-04-16T17:20:11.308Z,13.33
2023-04-16T17:22:41.221Z,13.28
2023-04-16T17:25:11.923Z,13.27
2023-04-16T17:27:42.407Z,13.22
2023-04-16T17:30:12.961Z,13.05
2023-04-16T17:32:42.583Z,12.77
2023-04-16T17:35:14.319Z,12.46
2023-04-16T17:37:44.909Z,12.22
2023-04-16T17:40:18.041Z,12.08
2023-04-16T17:42:50.387Z,11.93
2023-04-16T17:45:20.124Z,11.81
2023-04-16T17:47:50.441Z,11.69
2023-04-16T17:50:20.044Z,11.65
2023-04-16T17:52:49.634Z,11.62
2023-04-16T17:55:19.195Z,11.57
2023-04-16T17:57:49.507Z,11.44
2023-04-16T18:00:20.204Z,11.39
2023-04-16T18:02:50.121Z,11.36
2023-04-16T18:05:20.323Z,11.33
2023-04-16T18:07:51.035Z,11.29
2023-04-16T18:10:21.265Z,11.28
2023-04-16T18:12:51.112Z,11.25
2023-04-16T18:15:21.313Z,11.17
2023-04-16T18:17:52.035Z,11.12
2023-04-16T18:20:23.713Z,11.12
2023-04-16T18:22:54.348Z,11.14
2023-04-16T18:25:33.924Z,11.19
2023-04-16T18:28:06.773Z,11.26
2023-04-16T18:30:40.466Z,11.32
2023-04-16T18:33:42.711Z,11.35
2023-04-16T18:36:05.015Z,11.40
2023-04-16T18:38:35.086Z,11.44
2023-04-16T18:41:05.379Z,11.49
2023-04-16T18:43:35.048Z,11.52
2023-04-16T18:46:04.573Z,11.56
2023-04-16T18:48:34.280Z,11.61
2023-04-16T18:51:03.260Z,11.64
2023-04-16T18:53:33.815Z,11.67
2023-04-16T18:56:04.583Z,11.69
2023-04-16T18:58:34.918Z,11.73
2023-04-16T19:01:05.365Z,11.74
2023-04-16T19:03:35.746Z,11.74
2023-04-16T19:06:06.459Z,11.71
2023-04-16T19:08:35.988Z,11.64
2023-04-16T19:11:05.609Z,11.57
2023-04-16T19:13:36.296Z,11.50
2023-04-16T19:16:11.920Z,11.41
2023-04-16T19:18:41.015Z,11.36
2023-04-16T19:21:12.358Z,11.33
2023-04-16T19:23:41.952Z,11.27
2023-04-16T19:26:11.508Z,11.20
2023-04-16T19:28:42.957Z,11.14
2023-04-16T19:31:12.618Z,11.11
2023-04-16T19:33:42.718Z,11.08
2023-04-16T19:36:12.599Z,11.08
2023-04-16T19:38:42.106Z,11.08
2023-04-16T19:41:12.123Z,11.08
2023-04-16T19:43:42.101Z,11.07
2023-04-16T19:46:11.568Z,11.03
2023-04-16T19:48:41.672Z,11.00
2023-04-16T19:51:11.973Z,10.97
2023-04-16T19:53:42.709Z,10.93
2023-04-16T19:56:14.208Z,10.92
2023-04-16T19:58:44.629Z,10.91
2023-04-16T20:01:14.954Z,10.90
2023-04-16T20:03:45.036Z,10.90
2023-04-16T20:06:15.122Z,10.89
2023-04-16T20:08:45.256Z,10.87
2023-04-16T20:11:15.413Z,10.85
2023-04-16T20:13:49.067Z,10.87
2023-04-16T20:16:24.375Z,10.88
2023-04-16T20:18:57.378Z,10.88
2023-04-16T20:21:30.444Z,10.87
2023-04-16T20:24:03.358Z,10.85
2023-04-16T20:26:37.107Z,10.84
2023-04-16T20:29:07.029Z,10.82
2023-04-16T20:31:37.356Z,10.79
2023-04-16T20:34:07.749Z,10.76
2023-04-16T20:36:37.677Z,10.77
2023-04-16T20:39:08.604Z,10.75
2023-04-16T20:41:44.320Z,10.73
2023-04-16T20:44:19.665Z,10.74
2023-04-16T20:46:51.120Z,10.73
2023-04-16T20:49:20.029Z,10.71
2023-04-16T20:51:50.190Z,10.69
2023-04-16T20:54:20.178Z,10.67
2023-04-16T20:56:50.855Z,10.63
2023-04-16T20:59:20.881Z,10.58
2023-04-16T21:01:50.931Z,10.53
2023-04-16T21:04:21.793Z,10.50
2023-04-16T21:06:54.095Z,10.49
2023-04-16T21:09:24.390Z,10.50
2023-04-16T21:11:53.982Z,10.51
2023-04-16T21:14:24.103Z,10.51
2023-04-16T21:16:53.599Z,10.51
2023-04-16T21:19:23.675Z,10.50
2023-04-16T21:21:53.666Z,10.49
2023-04-16T21:24:23.759Z,10.46
2023-04-16T21:26:53.280Z,10.43
2023-04-16T21:29:22.754Z,10.43
2023-04-16T21:31:52.773Z,10.42
2023-04-16T21:34:21.801Z,10.41
2023-04-16T21:36:51.866Z,10.41
2023-04-16T21:39:22.162Z,10.41
2023-04-16T21:41:51.663Z,10.43
2023-04-16T21:44:21.631Z,10.45
2023-04-16T21:46:52.599Z,10.45
2023-04-16T21:49:22.707Z,10.46
2023-04-16T21:51:59.737Z,10.44
2023-04-16T21:54:29.203Z,10.44
2023-04-16T21:56:59.146Z,10.46
2023-04-16T21:59:29.204Z,10.48
2023-04-16T22:01:58.713Z,10.49
2023-04-16T22:04:37.525Z,10.52
2023-04-16T22:07:12.173Z,10.55
2023-04-16T22:09:44.961Z,10.59
2023-04-16T22:12:15.871Z,10.62
2023-04-16T22:14:59.775Z,10.63
2023-04-16T22:17:34.854Z,10.64
2023-04-16T22:20:12.696Z,10.64
2023-04-16T22:22:43.285Z,10.61
2023-04-16T22:25:13.727Z,10.59
2023-04-16T22:27:44.098Z,10.57
2023-04-16T22:30:14.219Z,10.54
2023-04-16T22:32:44.217Z,10.55
2023-04-16T22:35:13.934Z,10.55
2023-04-16T22:37:43.728Z,10.58
2023-04-16T22:40:12.656Z,10.62
2023-04-16T22:42:42.839Z,10.65
2023-04-16T22:45:13.213Z,10.66
2023-04-16T22:47:43.694Z,10.67
2023-04-16T22:50:13.074Z,10.66
2023-04-16T22:52:42.528Z,10.66
2023-04-16T22:55:12.313Z,10.67
2023-04-16T22:57:42.525Z,10.70
2023-04-16T23:00:18.061Z,10.72
2023-04-16T23:02:48.388Z,10.77
2023-04-16T23:05:18.506Z,10.79
2023-04-16T23:07:48.751Z,10.82
2023-04-16T23:10:18.405Z,10.83
2023-04-16T23:12:48.101Z,10.85
2023-04-16T23:15:18.606Z,10.89
2023-04-16T23:17:48.551Z,10.93
2023-04-16T23:20:18.731Z,10.94
2023-04-16T23:22:48.966Z,10.92
2023-04-16T23:25:18.665Z,10.93
2023-04-16T23:27:49.663Z,10.94
2023-04-16T23:30:19.743Z,10.97
2023-04-16T23:32:50.216Z,11.02
2023-04-16T23:35:23.738Z,11.05
2023-04-16T23:37:53.357Z,11.07
2023-04-16T23:40:23.359Z,11.05
2023-04-16T23:42:53.359Z,11.04
2023-04-16T23:45:22.876Z,11.04
2023-04-16T23:47:53.168Z,11.06
2023-04-16T23:50:23.206Z,11.08
2023-04-16T23:52:53.235Z,11.10
2023-04-16T23:55:23.022Z,11.08
2023-04-16T23:57:53.130Z,11.06
